sensor_id;sensor_type;location;lat;lon;timestamp;P1;durP1;ratioP1;P2;durP2;ratioP2
62709;SDS011;48770;51.624;5.886;2023-09-19T00:00:14;5.95;;;1.70;;
62709;SDS011;48770;51.624;5.886;2023-09-19T00:02:39;9.98;;;2.35;;
62709;SDS011;48770;51.624;5.886;2023-09-19T00:05:05;7.07;;;1.67;;
62709;SDS011;48770;51.624;5.886;2023-09-19T00:07:30;4.20;;;1.55;;
62709;SDS011;48770;51.624;5.886;2023-09-19T00:09:56;6.17;;;1.90;;
62709;SDS011;48770;51.624;5.886;2023-09-19T00:12:21;6.15;;;1.67;;
62709;SDS011;48770;51.624;5.886;2023-09-19T00:14:47;7.03;;;1.77;;
62709;SDS011;48770;51.624;5.886;2023-09-19T00:17:12;5.47;;;1.52;;
62709;SDS011;48770;51.624;5.886;2023-09-19T00:19:38;10.95;;;2.00;;
62709;SDS011;48770;51.624;5.886;2023-09-19T00:22:03;7.43;;;2.17;;
62709;SDS011;48770;51.624;5.886;2023-09-19T00:24:29;5.65;;;1.80;;
62709;SDS011;48770;51.624;5.886;2023-09-19T00:26:55;4.55;;;1.80;;
62709;SDS011;48770;51.624;5.886;2023-09-19T00:29:21;7.22;;;1.70;;
62709;SDS011;48770;51.624;5.886;2023-09-19T00:31:48;6.35;;;1.73;;
62709;SDS011;48770;51.624;5.886;2023-09-19T00:34:13;6.57;;;1.88;;
62709;SDS011;48770;51.624;5.886;2023-09-19T00:36:39;8.30;;;2.20;;
62709;SDS011;48770;51.624;5.886;2023-09-19T00:39:05;6.93;;;1.73;;
62709;SDS011;48770;51.624;5.886;2023-09-19T00:41:34;6.65;;;1.92;;
62709;SDS011;48770;51.624;5.886;2023-09-19T00:44:03;6.13;;;1.55;;
62709;SDS011;48770;51.624;5.886;2023-09-19T00:46:29;5.95;;;1.60;;
62709;SDS011;48770;51.624;5.886;2023-09-19T00:48:55;6.40;;;1.63;;
62709;SDS011;48770;51.624;5.886;2023-09-19T00:51:22;6.78;;;1.83;;
62709;SDS011;48770;51.624;5.886;2023-09-19T00:53:48;6.80;;;1.75;;
62709;SDS011;48770;51.624;5.886;2023-09-19T00:56:14;8.73;;;2.10;;
62709;SDS011;48770;51.624;5.886;2023-09-19T00:58:43;9.55;;;1.65;;
62709;SDS011;48770;51.624;5.886;2023-09-19T01:01:09;8.07;;;1.90;;
62709;SDS011;48770;51.624;5.886;2023-09-19T01:03:36;5.00;;;1.50;;
62709;SDS011;48770;51.624;5.886;2023-09-19T01:06:02;4.78;;;1.67;;
62709;SDS011;48770;51.624;5.886;2023-09-19T01:08:27;10.15;;;2.28;;
62709;SDS011;48770;51.624;5.886;2023-09-19T01:11:03;5.90;;;1.67;;
62709;SDS011;48770;51.624;5.886;2023-09-19T01:13:47;7.68;;;2.08;;
62709;SDS011;48770;51.624;5.886;2023-09-19T01:16:33;5.32;;;1.45;;
62709;SDS011;48770;51.624;5.886;2023-09-19T01:21:58;9.98;;;1.70;;
62709;SDS011;48770;51.624;5.886;2023-09-19T01:30:35;7.00;;;2.03;;
62709;SDS011;48770;51.624;5.886;2023-09-19T01:33:05;6.95;;;1.65;;
62709;SDS011;48770;51.624;5.886;2023-09-19T01:35:31;6.05;;;1.60;;
62709;SDS011;48770;51.624;5.886;2023-09-19T01:37:59;6.25;;;2.00;;
62709;SDS011;48770;51.624;5.886;2023-09-19T01:40:24;7.97;;;2.15;;
62709;SDS011;48770;51.624;5.886;2023-09-19T01:42:57;9.57;;;1.85;;
62709;SDS011;48770;51.624;5.886;2023-09-19T01:48:19;4.72;;;1.88;;
62709;SDS011;48770;51.624;5.886;2023-09-19T01:51:00;6.15;;;1.63;;
62709;SDS011;48770;51.624;5.886;2023-09-19T01:53:35;5.78;;;1.85;;
62709;SDS011;48770;51.624;5.886;2023-09-19T01:56:03;5.57;;;1.98;;
62709;SDS011;48770;51.624;5.886;2023-09-19T01:58:37;4.93;;;1.42;;
62709;SDS011;48770;51.624;5.886;2023-09-19T02:01:08;7.05;;;1.77;;
62709;SDS011;48770;51.624;5.886;2023-09-19T02:03:40;5.28;;;1.70;;
62709;SDS011;48770;51.624;5.886;2023-09-19T02:06:06;6.63;;;1.48;;
62709;SDS011;48770;51.624;5.886;2023-09-19T02:08:36;5.10;;;1.52;;
62709;SDS011;48770;51.624;5.886;2023-09-19T02:11:01;6.07;;;1.80;;
62709;SDS011;48770;51.624;5.886;2023-09-19T02:13:27;9.00;;;1.83;;
62709;SDS011;48770;51.624;5.886;2023-09-19T02:15:53;5.38;;;1.48;;
62709;SDS011;48770;51.624;5.886;2023-09-19T02:18:18;7.35;;;1.95;;
62709;SDS011;48770;51.624;5.886;2023-09-19T02:20:45;7.82;;;1.52;;
62709;SDS011;48770;51.624;5.886;2023-09-19T02:23:11;6.18;;;2.00;;
62709;SDS011;48770;51.624;5.886;2023-09-19T02:25:37;7.07;;;1.70;;
62709;SDS011;48770;51.624;5.886;2023-09-19T02:28:04;5.72;;;1.67;;
62709;SDS011;48770;51.624;5.886;2023-09-19T02:30:30;7.30;;;1.77;;
62709;SDS011;48770;51.624;5.886;2023-09-19T02:32:56;5.65;;;1.70;;
62709;SDS011;48770;51.624;5.886;2023-09-19T02:35:21;6.28;;;2.05;;
62709;SDS011;48770;51.624;5.886;2023-09-19T02:37:47;5.68;;;1.63;;
62709;SDS011;48770;51.624;5.886;2023-09-19T02:40:13;5.10;;;1.48;;
62709;SDS011;48770;51.624;5.886;2023-09-19T02:42:48;4.68;;;1.20;;
62709;SDS011;48770;51.624;5.886;2023-09-19T02:45:15;7.15;;;1.85;;
62709;SDS011;48770;51.624;5.886;2023-09-19T02:47:42;5.57;;;1.52;;
62709;SDS011;48770;51.624;5.886;2023-09-19T02:50:08;5.90;;;1.75;;
62709;SDS011;48770;51.624;5.886;2023-09-19T02:52:36;8.30;;;1.40;;
62709;SDS011;48770;51.624;5.886;2023-09-19T02:55:01;7.88;;;2.13;;
62709;SDS011;48770;51.624;5.886;2023-09-19T02:57:28;8.23;;;1.70;;
62709;SDS011;48770;51.624;5.886;2023-09-19T02:59:54;4.63;;;1.58;;
62709;SDS011;48770;51.624;5.886;2023-09-19T03:02:19;5.93;;;1.75;;
62709;SDS011;48770;51.624;5.886;2023-09-19T03:04:45;5.43;;;1.63;;
62709;SDS011;48770;51.624;5.886;2023-09-19T03:07:12;6.88;;;1.73;;
62709;SDS011;48770;51.624;5.886;2023-09-19T03:09:37;7.15;;;1.48;;
62709;SDS011;48770;51.624;5.886;2023-09-19T03:12:02;6.13;;;1.92;;
62709;SDS011;48770;51.624;5.886;2023-09-19T03:14:29;5.43;;;1.88;;
62709;SDS011;48770;51.624;5.886;2023-09-19T03:17:00;7.97;;;1.90;;
62709;SDS011;48770;51.624;5.886;2023-09-19T03:19:26;4.88;;;1.50;;
62709;SDS011;48770;51.624;5.886;2023-09-19T03:21:51;5.57;;;1.58;;
62709;SDS011;48770;51.624;5.886;2023-09-19T03:24:18;5.10;;;1.65;;
62709;SDS011;48770;51.624;5.886;2023-09-19T03:26:44;5.57;;;1.90;;
62709;SDS011;48770;51.624;5.886;2023-09-19T03:29:10;8.57;;;1.92;;
62709;SDS011;48770;51.624;5.886;2023-09-19T03:31:36;6.15;;;1.90;;
62709;SDS011;48770;51.624;5.886;2023-09-19T03:34:04;4.72;;;1.30;;
62709;SDS011;48770;51.624;5.886;2023-09-19T03:36:29;10.50;;;2.10;;
62709;SDS011;48770;51.624;5.886;2023-09-19T03:38:55;5.93;;;1.45;;
62709;SDS011;48770;51.624;5.886;2023-09-19T03:41:20;5.32;;;1.50;;
62709;SDS011;48770;51.624;5.886;2023-09-19T03:43:46;7.93;;;1.70;;
62709;SDS011;48770;51.624;5.886;2023-09-19T03:46:11;4.13;;;1.63;;
62709;SDS011;48770;51.624;5.886;2023-09-19T03:48:40;4.55;;;1.50;;
62709;SDS011;48770;51.624;5.886;2023-09-19T03:51:05;6.10;;;1.70;;
62709;SDS011;48770;51.624;5.886;2023-09-19T03:53:30;8.70;;;1.70;;
62709;SDS011;48770;51.624;5.886;2023-09-19T03:55:56;8.45;;;1.88;;
62709;SDS011;48770;51.624;5.886;2023-09-19T03:58:22;7.47;;;1.65;;
62709;SDS011;48770;51.624;5.886;2023-09-19T04:00:47;5.43;;;1.25;;
62709;SDS011;48770;51.624;5.886;2023-09-19T04:03:14;5.70;;;1.88;;
62709;SDS011;48770;51.624;5.886;2023-09-19T04:05:45;2.78;;;1.20;;
62709;SDS011;48770;51.624;5.886;2023-09-19T04:08:11;4.60;;;1.40;;
62709;SDS011;48770;51.624;5.886;2023-09-19T04:10:37;4.28;;;1.40;;
62709;SDS011;48770;51.624;5.886;2023-09-19T04:13:02;4.72;;;1.58;;
62709;SDS011;48770;51.624;5.886;2023-09-19T04:15:29;6.78;;;1.55;;
62709;SDS011;48770;51.624;5.886;2023-09-19T04:17:54;4.40;;;1.23;;
62709;SDS011;48770;51.624;5.886;2023-09-19T04:20:20;4.35;;;1.45;;
62709;SDS011;48770;51.624;5.886;2023-09-19T04:22:48;4.93;;;1.20;;
62709;SDS011;48770;51.624;5.886;2023-09-19T04:25:13;7.68;;;1.95;;
62709;SDS011;48770;51.624;5.886;2023-09-19T04:27:39;3.92;;;1.27;;
62709;SDS011;48770;51.624;5.886;2023-09-19T04:30:06;4.45;;;1.50;;
62709;SDS011;48770;51.624;5.886;2023-09-19T04:32:35;5.35;;;1.83;;
62709;SDS011;48770;51.624;5.886;2023-09-19T04:35:01;5.47;;;1.17;;
62709;SDS011;48770;51.624;5.886;2023-09-19T04:37:30;4.30;;;1.45;;
62709;SDS011;48770;51.624;5.886;2023-09-19T04:39:55;4.27;;;1.30;;
62709;SDS011;48770;51.624;5.886;2023-09-19T04:42:21;3.95;;;1.23;;
62709;SDS011;48770;51.624;5.886;2023-09-19T04:44:50;5.22;;;1.50;;
62709;SDS011;48770;51.624;5.886;2023-09-19T04:47:17;4.35;;;1.20;;
62709;SDS011;48770;51.624;5.886;2023-09-19T04:49:43;5.30;;;1.83;;
62709;SDS011;48770;51.624;5.886;2023-09-19T04:52:08;6.50;;;1.90;;
62709;SDS011;48770;51.624;5.886;2023-09-19T04:54:33;4.70;;;1.50;;
62709;SDS011;48770;51.624;5.886;2023-09-19T04:56:59;4.57;;;1.67;;
62709;SDS011;48770;51.624;5.886;2023-09-19T04:59:25;4.95;;;1.42;;
62709;SDS011;48770;51.624;5.886;2023-09-19T05:01:50;5.43;;;1.53;;
62709;SDS011;48770;51.624;5.886;2023-09-19T05:04:16;6.25;;;1.60;;
62709;SDS011;48770;51.624;5.886;2023-09-19T05:06:41;3.33;;;1.52;;
62709;SDS011;48770;51.624;5.886;2023-09-19T05:09:06;6.70;;;1.77;;
62709;SDS011;48770;51.624;5.886;2023-09-19T05:11:33;6.60;;;1.58;;
62709;SDS011;48770;51.624;5.886;2023-09-19T05:13:58;3.97;;;1.45;;
62709;SDS011;48770;51.624;5.886;2023-09-19T05:16:28;6.07;;;1.52;;
62709;SDS011;48770;51.624;5.886;2023-09-19T05:18:54;6.10;;;1.63;;
62709;SDS011;48770;51.624;5.886;2023-09-19T05:21:20;6.17;;;1.73;;
62709;SDS011;48770;51.624;5.886;2023-09-19T05:23:45;6.80;;;1.60;;
62709;SDS011;48770;51.624;5.886;2023-09-19T05:26:10;5.22;;;1.52;;
62709;SDS011;48770;51.624;5.886;2023-09-19T05:28:36;6.40;;;1.35;;
62709;SDS011;48770;51.624;5.886;2023-09-19T05:31:02;4.65;;;1.48;;
62709;SDS011;48770;51.624;5.886;2023-09-19T05:33:28;6.10;;;1.70;;
62709;SDS011;48770;51.624;5.886;2023-09-19T05:35:56;6.35;;;1.60;;
62709;SDS011;48770;51.624;5.886;2023-09-19T05:38:21;4.35;;;1.10;;
62709;SDS011;48770;51.624;5.886;2023-09-19T05:40:46;7.47;;;2.00;;
62709;SDS011;48770;51.624;5.886;2023-09-19T05:43:12;6.45;;;1.35;;
62709;SDS011;48770;51.624;5.886;2023-09-19T05:45:39;4.13;;;1.35;;
62709;SDS011;48770;51.624;5.886;2023-09-19T05:48:09;5.13;;;1.30;;
62709;SDS011;48770;51.624;5.886;2023-09-19T05:50:36;6.13;;;1.55;;
62709;SDS011;48770;51.624;5.886;2023-09-19T05:53:02;5.35;;;1.80;;
62709;SDS011;48770;51.624;5.886;2023-09-19T05:55:29;6.55;;;1.50;;
62709;SDS011;48770;51.624;5.886;2023-09-19T05:57:54;6.30;;;1.45;;
62709;SDS011;48770;51.624;5.886;2023-09-19T06:00:20;6.38;;;1.42;;
62709;SDS011;48770;51.624;5.886;2023-09-19T06:02:50;5.88;;;1.80;;
62709;SDS011;48770;51.624;5.886;2023-09-19T06:05:19;5.35;;;1.50;;
62709;SDS011;48770;51.624;5.886;2023-09-19T06:07:46;3.65;;;1.20;;
62709;SDS011;48770;51.624;5.886;2023-09-19T06:10:12;6.07;;;1.48;;
62709;SDS011;48770;51.624;5.886;2023-09-19T06:12:40;5.82;;;1.60;;
62709;SDS011;48770;51.624;5.886;2023-09-19T06:15:10;4.95;;;1.73;;
62709;SDS011;48770;51.624;5.886;2023-09-19T06:17:40;5.47;;;1.60;;
62709;SDS011;48770;51.624;5.886;2023-09-19T06:20:15;7.70;;;1.80;;
62709;SDS011;48770;51.624;5.886;2023-09-19T06:22:42;7.97;;;2.20;;
62709;SDS011;48770;51.624;5.886;2023-09-19T06:25:08;8.02;;;1.88;;
62709;SDS011;48770;51.624;5.886;2023-09-19T06:27:40;6.18;;;1.95;;
62709;SDS011;48770;51.624;5.886;2023-09-19T06:30:07;7.60;;;1.95;;
62709;SDS011;48770;51.624;5.886;2023-09-19T06:32:34;6.35;;;2.13;;
62709;SDS011;48770;51.624;5.886;2023-09-19T06:34:59;5.63;;;1.70;;
62709;SDS011;48770;51.624;5.886;2023-09-19T06:37:27;5.80;;;1.30;;
62709;SDS011;48770;51.624;5.886;2023-09-19T06:39:53;3.80;;;1.55;;
62709;SDS011;48770;51.624;5.886;2023-09-19T06:42:18;4.72;;;1.20;;
62709;SDS011;48770;51.624;5.886;2023-09-19T06:44:44;5.68;;;1.38;;
62709;SDS011;48770;51.624;5.886;2023-09-19T06:47:09;5.80;;;1.55;;
62709;SDS011;48770;51.624;5.886;2023-09-19T06:49:35;7.35;;;1.92;;
62709;SDS011;48770;51.624;5.886;2023-09-19T06:52:01;8.77;;;2.20;;
62709;SDS011;48770;51.624;5.886;2023-09-19T06:54:27;5.50;;;1.95;;
62709;SDS011;48770;51.624;5.886;2023-09-19T06:56:59;7.63;;;1.60;;
62709;SDS011;48770;51.624;5.886;2023-09-19T06:59:24;8.35;;;2.00;;
62709;SDS011;48770;51.624;5.886;2023-09-19T07:01:50;4.28;;;1.35;;
62709;SDS011;48770;51.624;5.886;2023-09-19T07:04:18;6.43;;;1.65;;
62709;SDS011;48770;51.624;5.886;2023-09-19T07:06:50;5.97;;;1.80;;
62709;SDS011;48770;51.624;5.886;2023-09-19T07:09:15;6.50;;;1.70;;
62709;SDS011;48770;51.624;5.886;2023-09-19T07:11:41;5.75;;;1.60;;
62709;SDS011;48770;51.624;5.886;2023-09-19T07:14:07;6.47;;;1.77;;
62709;SDS011;48770;51.624;5.886;2023-09-19T07:16:33;9.60;;;2.08;;
62709;SDS011;48770;51.624;5.886;2023-09-19T07:18:58;7.53;;;1.77;;
62709;SDS011;48770;51.624;5.886;2023-09-19T07:21:24;5.93;;;1.58;;
62709;SDS011;48770;51.624;5.886;2023-09-19T07:23:49;4.85;;;1.67;;
62709;SDS011;48770;51.624;5.886;2023-09-19T07:26:15;7.38;;;2.13;;
62709;SDS011;48770;51.624;5.886;2023-09-19T07:28:41;4.75;;;1.55;;
62709;SDS011;48770;51.624;5.886;2023-09-19T07:31:06;6.72;;;2.05;;
62709;SDS011;48770;51.624;5.886;2023-09-19T07:33:34;8.63;;;1.95;;
62709;SDS011;48770;51.624;5.886;2023-09-19T07:36:01;7.63;;;1.88;;
62709;SDS011;48770;51.624;5.886;2023-09-19T07:38:26;5.47;;;2.00;;
62709;SDS011;48770;51.624;5.886;2023-09-19T07:40:51;6.00;;;1.80;;
62709;SDS011;48770;51.624;5.886;2023-09-19T07:43:17;6.78;;;1.60;;
62709;SDS011;48770;51.624;5.886;2023-09-19T07:45:43;6.82;;;2.22;;
62709;SDS011;48770;51.624;5.886;2023-09-19T07:48:08;6.68;;;1.65;;
62709;SDS011;48770;51.624;5.886;2023-09-19T07:50:39;5.20;;;1.77;;
62709;SDS011;48770;51.624;5.886;2023-09-19T07:53:05;9.05;;;1.88;;
62709;SDS011;48770;51.624;5.886;2023-09-19T07:55:30;6.00;;;1.95;;
62709;SDS011;48770;51.624;5.886;2023-09-19T07:57:55;6.65;;;1.75;;
62709;SDS011;48770;51.624;5.886;2023-09-19T08:00:21;8.85;;;1.88;;
62709;SDS011;48770;51.624;5.886;2023-09-19T08:02:46;5.25;;;1.65;;
62709;SDS011;48770;51.624;5.886;2023-09-19T08:05:17;6.00;;;1.67;;
62709;SDS011;48770;51.624;5.886;2023-09-19T08:07:43;7.60;;;1.77;;
62709;SDS011;48770;51.624;5.886;2023-09-19T08:10:17;7.78;;;1.67;;
62709;SDS011;48770;51.624;5.886;2023-09-19T08:12:45;7.22;;;1.83;;
62709;SDS011;48770;51.624;5.886;2023-09-19T08:15:12;5.47;;;1.80;;
62709;SDS011;48770;51.624;5.886;2023-09-19T08:17:41;5.60;;;1.60;;
62709;SDS011;48770;51.624;5.886;2023-09-19T08:20:08;5.50;;;1.63;;
62709;SDS011;48770;51.624;5.886;2023-09-19T08:22:41;7.63;;;2.25;;
62709;SDS011;48770;51.624;5.886;2023-09-19T08:25:07;5.88;;;1.65;;
62709;SDS011;48770;51.624;5.886;2023-09-19T08:27:32;5.07;;;1.67;;
62709;SDS011;48770;51.624;5.886;2023-09-19T08:30:01;7.47;;;2.15;;
62709;SDS011;48770;51.624;5.886;2023-09-19T08:32:28;7.75;;;1.70;;
62709;SDS011;48770;51.624;5.886;2023-09-19T08:34:53;8.70;;;2.20;;
62709;SDS011;48770;51.624;5.886;2023-09-19T08:37:19;8.25;;;1.95;;
62709;SDS011;48770;51.624;5.886;2023-09-19T08:39:44;8.27;;;1.83;;
62709;SDS011;48770;51.624;5.886;2023-09-19T08:42:09;6.13;;;1.80;;
62709;SDS011;48770;51.624;5.886;2023-09-19T08:44:36;6.65;;;2.53;;
62709;SDS011;48770;51.624;5.886;2023-09-19T08:47:09;7.53;;;1.63;;
62709;SDS011;48770;51.624;5.886;2023-09-19T08:52:28;6.55;;;2.17;;
62709;SDS011;48770;51.624;5.886;2023-09-19T08:55:01;6.35;;;1.83;;
62709;SDS011;48770;51.624;5.886;2023-09-19T08:57:31;8.95;;;2.15;;
62709;SDS011;48770;51.624;5.886;2023-09-19T09:00:01;9.48;;;1.90;;
62709;SDS011;48770;51.624;5.886;2023-09-19T09:02:30;9.00;;;1.83;;
62709;SDS011;48770;51.624;5.886;2023-09-19T09:04:59;9.30;;;2.15;;
62709;SDS011;48770;51.624;5.886;2023-09-19T09:07:25;6.75;;;1.63;;
62709;SDS011;48770;51.624;5.886;2023-09-19T09:09:52;10.13;;;2.35;;
62709;SDS011;48770;51.624;5.886;2023-09-19T09:12:18;11.85;;;2.20;;
62709;SDS011;48770;51.624;5.886;2023-09-19T09:14:46;6.55;;;1.75;;
62709;SDS011;48770;51.624;5.886;2023-09-19T09:17:15;7.30;;;1.85;;
62709;SDS011;48770;51.624;5.886;2023-09-19T09:19:45;8.27;;;2.05;;
62709;SDS011;48770;51.624;5.886;2023-09-19T09:22:12;6.38;;;1.88;;
62709;SDS011;48770;51.624;5.886;2023-09-19T09:24:37;6.78;;;1.63;;
62709;SDS011;48770;51.624;5.886;2023-09-19T09:27:19;9.43;;;1.77;;
62709;SDS011;48770;51.624;5.886;2023-09-19T09:29:46;7.90;;;1.98;;
62709;SDS011;48770;51.624;5.886;2023-09-19T09:34:44;6.18;;;1.60;;
62709;SDS011;48770;51.624;5.886;2023-09-19T09:37:14;8.45;;;1.75;;
62709;SDS011;48770;51.624;5.886;2023-09-19T09:39:40;7.75;;;1.95;;
62709;SDS011;48770;51.624;5.886;2023-09-19T09:42:29;9.85;;;1.98;;
62709;SDS011;48770;51.624;5.886;2023-09-19T09:48:02;5.75;;;1.75;;
62709;SDS011;48770;51.624;5.886;2023-09-19T09:50:45;8.13;;;2.00;;
62709;SDS011;48770;51.624;5.886;2023-09-19T09:53:21;8.13;;;1.85;;
62709;SDS011;48770;51.624;5.886;2023-09-19T09:56:05;7.70;;;1.88;;
62709;SDS011;48770;51.624;5.886;2023-09-19T09:58:35;6.85;;;1.83;;
62709;SDS011;48770;51.624;5.886;2023-09-19T10:01:05;7.22;;;1.75;;
62709;SDS011;48770;51.624;5.886;2023-09-19T10:03:37;7.75;;;1.95;;
62709;SDS011;48770;51.624;5.886;2023-09-19T10:06:09;11.18;;;2.45;;
62709;SDS011;48770;51.624;5.886;2023-09-19T10:09:01;10.32;;;2.25;;
62709;SDS011;48770;51.624;5.886;2023-09-19T10:14:28;9.23;;;1.60;;
62709;SDS011;48770;51.624;5.886;2023-09-19T10:16:56;5.45;;;1.67;;
62709;SDS011;48770;51.624;5.886;2023-09-19T10:19:42;8.40;;;2.60;;
62709;SDS011;48770;51.624;5.886;2023-09-19T10:22:12;9.50;;;2.08;;
62709;SDS011;48770;51.624;5.886;2023-09-19T10:24:39;5.85;;;2.08;;
62709;SDS011;48770;51.624;5.886;2023-09-19T10:27:06;6.70;;;1.90;;
62709;SDS011;48770;51.624;5.886;2023-09-19T10:29:35;8.52;;;2.08;;
62709;SDS011;48770;51.624;5.886;2023-09-19T10:32:04;6.45;;;2.05;;
62709;SDS011;48770;51.624;5.886;2023-09-19T10:34:33;7.10;;;1.90;;
62709;SDS011;48770;51.624;5.886;2023-09-19T10:37:00;7.05;;;1.77;;
62709;SDS011;48770;51.624;5.886;2023-09-19T10:39:30;8.77;;;2.00;;
62709;SDS011;48770;51.624;5.886;2023-09-19T10:41:57;6.85;;;1.75;;
62709;SDS011;48770;51.624;5.886;2023-09-19T10:44:31;6.38;;;1.50;;
62709;SDS011;48770;51.624;5.886;2023-09-19T10:46:57;5.97;;;1.75;;
62709;SDS011;48770;51.624;5.886;2023-09-19T10:49:23;6.75;;;1.80;;
62709;SDS011;48770;51.624;5.886;2023-09-19T10:51:50;7.63;;;2.03;;
62709;SDS011;48770;51.624;5.886;2023-09-19T10:54:24;7.25;;;2.15;;
62709;SDS011;48770;51.624;5.886;2023-09-19T10:56:54;6.35;;;1.70;;
62709;SDS011;48770;51.624;5.886;2023-09-19T10:59:22;8.48;;;1.98;;
62709;SDS011;48770;51.624;5.886;2023-09-19T11:07:06;7.18;;;1.83;;
62709;SDS011;48770;51.624;5.886;2023-09-19T11:12:11;5.60;;;1.65;;
62709;SDS011;48770;51.624;5.886;2023-09-19T11:14:38;4.43;;;1.50;;
62709;SDS011;48770;51.624;5.886;2023-09-19T11:23:09;5.63;;;1.80;;
62709;SDS011;48770;51.624;5.886;2023-09-19T11:30:33;6.53;;;1.65;;
62709;SDS011;48770;51.624;5.886;2023-09-19T11:36:13;7.10;;;1.58;;
62709;SDS011;48770;51.624;5.886;2023-09-19T11:39:01;4.15;;;1.88;;
62709;SDS011;48770;51.624;5.886;2023-09-19T11:41:36;7.30;;;1.80;;
62709;SDS011;48770;51.624;5.886;2023-09-19T11:47:14;4.93;;;1.48;;
62709;SDS011;48770;51.624;5.886;2023-09-19T11:49:18;3.70;;;1.23;;
62709;SDS011;48770;51.624;5.886;2023-09-19T11:51:50;5.20;;;1.75;;
62709;SDS011;48770;51.624;5.886;2023-09-19T11:54:19;4.18;;;1.05;;
62709;SDS011;48770;51.624;5.886;2023-09-19T11:56:51;6.28;;;1.33;;
62709;SDS011;48770;51.624;5.886;2023-09-19T11:59:22;3.67;;;1.33;;
62709;SDS011;48770;51.624;5.886;2023-09-19T12:01:51;8.75;;;1.88;;
62709;SDS011;48770;51.624;5.886;2023-09-19T12:07:03;7.18;;;1.65;;
62709;SDS011;48770;51.624;5.886;2023-09-19T12:09:30;4.80;;;1.40;;
62709;SDS011;48770;51.624;5.886;2023-09-19T12:11:56;4.22;;;1.27;;
62709;SDS011;48770;51.624;5.886;2023-09-19T12:14:23;5.40;;;1.40;;
62709;SDS011;48770;51.624;5.886;2023-09-19T12:16:53;6.22;;;1.25;;
62709;SDS011;48770;51.624;5.886;2023-09-19T12:19:20;7.43;;;1.55;;
62709;SDS011;48770;51.624;5.886;2023-09-19T12:24:23;4.78;;;1.40;;
62709;SDS011;48770;51.624;5.886;2023-09-19T12:26:51;5.82;;;1.48;;
62709;SDS011;48770;51.624;5.886;2023-09-19T12:29:21;5.45;;;1.35;;
62709;SDS011;48770;51.624;5.886;2023-09-19T12:31:50;5.28;;;1.40;;
62709;SDS011;48770;51.624;5.886;2023-09-19T12:34:22;5.60;;;0.82;;
62709;SDS011;48770;51.624;5.886;2023-09-19T12:39:30;4.63;;;1.15;;
62709;SDS011;48770;51.624;5.886;2023-09-19T12:41:56;8.57;;;1.40;;
62709;SDS011;48770;51.624;5.886;2023-09-19T12:44:21;3.72;;;0.90;;
62709;SDS011;48770;51.624;5.886;2023-09-19T12:46:49;5.32;;;1.40;;
62709;SDS011;48770;51.624;5.886;2023-09-19T12:49:15;6.85;;;1.30;;
62709;SDS011;48770;51.624;5.886;2023-09-19T12:51:47;3.63;;;1.20;;
62709;SDS011;48770;51.624;5.886;2023-09-19T12:54:13;3.50;;;0.90;;
62709;SDS011;48770;51.624;5.886;2023-09-19T12:56:44;4.85;;;0.93;;
62709;SDS011;48770;51.624;5.886;2023-09-19T12:59:12;4.18;;;0.93;;
62709;SDS011;48770;51.624;5.886;2023-09-19T13:01:41;4.57;;;1.00;;
62709;SDS011;48770;51.624;5.886;2023-09-19T13:04:16;3.65;;;1.30;;
62709;SDS011;48770;51.624;5.886;2023-09-19T13:06:44;3.95;;;0.95;;
62709;SDS011;48770;51.624;5.886;2023-09-19T13:09:14;2.95;;;1.10;;
62709;SDS011;48770;51.624;5.886;2023-09-19T13:11:45;2.13;;;0.80;;
62709;SDS011;48770;51.624;5.886;2023-09-19T13:19:35;5.78;;;0.93;;
62709;SDS011;48770;51.624;5.886;2023-09-19T13:22:00;7.70;;;1.05;;
62709;SDS011;48770;51.624;5.886;2023-09-19T13:24:27;3.13;;;1.05;;
62709;SDS011;48770;51.624;5.886;2023-09-19T13:26:54;3.08;;;0.82;;
62709;SDS011;48770;51.624;5.886;2023-09-19T13:29:20;4.22;;;0.93;;
62709;SDS011;48770;51.624;5.886;2023-09-19T13:31:46;2.93;;;1.10;;
62709;SDS011;48770;51.624;5.886;2023-09-19T13:34:12;2.67;;;0.90;;
62709;SDS011;48770;51.624;5.886;2023-09-19T13:36:40;3.67;;;0.80;;
62709;SDS011;48770;51.624;5.886;2023-09-19T13:39:06;3.42;;;1.05;;
62709;SDS011;48770;51.624;5.886;2023-09-19T13:41:34;3.40;;;0.98;;
62709;SDS011;48770;51.624;5.886;2023-09-19T13:44:01;4.63;;;0.88;;
62709;SDS011;48770;51.624;5.886;2023-09-19T13:46:27;2.78;;;0.70;;
62709;SDS011;48770;51.624;5.886;2023-09-19T13:48:52;4.22;;;1.30;;
62709;SDS011;48770;51.624;5.886;2023-09-19T13:51:21;2.33;;;0.60;;
62709;SDS011;48770;51.624;5.886;2023-09-19T13:53:48;3.25;;;0.98;;
62709;SDS011;48770;51.624;5.886;2023-09-19T13:56:15;1.98;;;0.50;;
62709;SDS011;48770;51.624;5.886;2023-09-19T13:58:40;4.65;;;0.70;;
62709;SDS011;48770;51.624;5.886;2023-09-19T14:01:06;2.88;;;0.55;;
62709;SDS011;48770;51.624;5.886;2023-09-19T14:03:37;7.13;;;0.90;;
62709;SDS011;48770;51.624;5.886;2023-09-19T14:06:03;3.17;;;0.80;;
62709;SDS011;48770;51.624;5.886;2023-09-19T14:08:28;2.45;;;0.75;;
62709;SDS011;48770;51.624;5.886;2023-09-19T14:10:54;1.98;;;0.50;;
62709;SDS011;48770;51.624;5.886;2023-09-19T14:13:19;2.92;;;0.70;;
62709;SDS011;48770;51.624;5.886;2023-09-19T14:15:45;2.17;;;0.63;;
62709;SDS011;48770;51.624;5.886;2023-09-19T14:18:10;3.17;;;0.77;;
62709;SDS011;48770;51.624;5.886;2023-09-19T14:20:37;4.30;;;0.70;;
62709;SDS011;48770;51.624;5.886;2023-09-19T14:23:05;3.30;;;0.73;;
62709;SDS011;48770;51.624;5.886;2023-09-19T14:25:31;1.88;;;0.80;;
62709;SDS011;48770;51.624;5.886;2023-09-19T14:27:59;6.18;;;0.65;;
62709;SDS011;48770;51.624;5.886;2023-09-19T14:30:24;3.87;;;0.60;;
62709;SDS011;48770;51.624;5.886;2023-09-19T14:32:50;5.68;;;0.57;;
62709;SDS011;48770;51.624;5.886;2023-09-19T14:35:16;2.78;;;0.77;;
62709;SDS011;48770;51.624;5.886;2023-09-19T14:37:41;3.83;;;0.70;;
62709;SDS011;48770;51.624;5.886;2023-09-19T14:40:07;1.60;;;0.60;;
62709;SDS011;48770;51.624;5.886;2023-09-19T14:42:34;5.00;;;0.77;;
62709;SDS011;48770;51.624;5.886;2023-09-19T14:45:02;3.17;;;0.45;;
62709;SDS011;48770;51.624;5.886;2023-09-19T14:47:28;2.83;;;0.80;;
62709;SDS011;48770;51.624;5.886;2023-09-19T14:49:56;2.25;;;0.50;;
62709;SDS011;48770;51.624;5.886;2023-09-19T14:52:23;2.30;;;0.70;;
62709;SDS011;48770;51.624;5.886;2023-09-19T14:54:48;3.20;;;0.45;;
62709;SDS011;48770;51.624;5.886;2023-09-19T14:57:13;2.53;;;0.60;;
62709;SDS011;48770;51.624;5.886;2023-09-19T14:59:40;5.47;;;0.60;;
62709;SDS011;48770;51.624;5.886;2023-09-19T15:02:06;1.98;;;0.50;;
62709;SDS011;48770;51.624;5.886;2023-09-19T15:04:32;1.45;;;0.50;;
62709;SDS011;48770;51.624;5.886;2023-09-19T15:06:58;2.67;;;0.80;;
62709;SDS011;48770;51.624;5.886;2023-09-19T15:09:24;4.60;;;1.05;;
62709;SDS011;48770;51.624;5.886;2023-09-19T15:11:54;1.63;;;0.45;;
62709;SDS011;48770;51.624;5.886;2023-09-19T15:14:20;2.78;;;1.00;;
62709;SDS011;48770;51.624;5.886;2023-09-19T15:16:50;3.08;;;0.80;;
62709;SDS011;48770;51.624;5.886;2023-09-19T15:19:15;2.47;;;0.88;;
62709;SDS011;48770;51.624;5.886;2023-09-19T15:21:41;2.13;;;0.70;;
62709;SDS011;48770;51.624;5.886;2023-09-19T15:24:07;5.05;;;1.20;;
62709;SDS011;48770;51.624;5.886;2023-09-19T15:26:35;3.38;;;1.20;;
62709;SDS011;48770;51.624;5.886;2023-09-19T15:29:04;3.78;;;1.20;;
62709;SDS011;48770;51.624;5.886;2023-09-19T15:31:30;3.00;;;0.88;;
62709;SDS011;48770;51.624;5.886;2023-09-19T15:33:55;6.18;;;1.40;;
62709;SDS011;48770;51.624;5.886;2023-09-19T15:36:20;4.07;;;1.25;;
62709;SDS011;48770;51.624;5.886;2023-09-19T15:39:05;4.05;;;1.50;;
62709;SDS011;48770;51.624;5.886;2023-09-19T15:41:34;3.83;;;1.40;;
62709;SDS011;48770;51.624;5.886;2023-09-19T15:44:02;4.80;;;1.42;;
62709;SDS011;48770;51.624;5.886;2023-09-19T15:46:28;5.20;;;1.45;;
62709;SDS011;48770;51.624;5.886;2023-09-19T15:49:01;7.00;;;1.40;;
62709;SDS011;48770;51.624;5.886;2023-09-19T15:51:26;4.15;;;1.60;;